createdAt,value
2019-01-09T00:03:15.553Z,78.00
2019-01-09T00:07:51.322Z,76.10
2019-01-09T00:12:27.065Z,77.00
2019-01-09T00:17:03.140Z,78.50
2019-01-09T00:21:38.894Z,78.00
2019-01-09T00:26:14.664Z,77.10
2019-01-09T00:30:50.413Z,76.40
2019-01-09T00:35:26.180Z,77.10
2019-01-09T00:40:01.961Z,78.00
2019-01-09T00:44:38.005Z,69.80
2019-01-09T00:49:13.733Z,70.20
2019-01-09T00:53:49.506Z,73.30
2019-01-09T00:58:25.250Z,74.10
2019-01-09T01:03:48.415Z,75.30
2019-01-09T01:09:17.320Z,72.50
2019-01-09T01:14:42.727Z,70.80
2019-01-09T01:19:48.027Z,68.40
2019-01-09T01:25:00.449Z,68.10
2019-01-09T01:30:32.061Z,69.00
2019-01-09T01:35:54.876Z,67.80
2019-01-09T01:41:13.936Z,69.10
2019-01-09T01:46:36.498Z,70.50
2019-01-09T01:51:48.386Z,76.20
2019-01-09T01:56:51.392Z,79.00
2019-01-09T02:02:32.385Z,81.20
2019-01-09T02:07:49.960Z,82.40
2019-01-09T02:13:08.188Z,83.10
2019-01-09T02:18:05.213Z,84.10
2019-01-09T02:23:17.043Z,84.60
2019-01-09T02:28:29.199Z,85.70
2019-01-09T02:33:04.943Z,85.30
2019-01-09T02:37:40.692Z,84.30
2019-01-09T02:42:16.456Z,81.10
2019-01-09T02:46:52.229Z,74.70
2019-01-09T02:51:27.969Z,70.50
2019-01-09T02:56:03.742Z,70.90
2019-01-09T03:00:39.604Z,71.60
2019-01-09T03:05:15.361Z,75.50
2019-01-09T03:09:51.118Z,80.60
2019-01-09T03:14:26.915Z,82.60
2019-01-09T03:19:02.667Z,81.50
2019-01-09T03:23:38.492Z,79.00
2019-01-09T03:28:14.246Z,75.50
2019-01-09T03:32:50.009Z,73.00
2019-01-09T03:37:27.057Z,71.10
2019-01-09T03:42:02.808Z,65.90
2019-01-09T03:46:38.580Z,64.60
2019-01-09T03:51:14.350Z,63.80
2019-01-09T03:55:50.090Z,65.10
2019-01-09T04:00:25.835Z,62.80
2019-01-09T04:05:01.780Z,64.20
2019-01-09T04:09:37.718Z,65.00
2019-01-09T04:14:13.436Z,64.10
2019-01-09T04:18:49.192Z,65.00
2019-01-09T04:23:26.057Z,63.60
2019-01-09T04:28:01.817Z,63.70
2019-01-09T04:32:37.561Z,64.40
2019-01-09T04:37:13.337Z,65.50
2019-01-09T04:41:49.081Z,68.10
2019-01-09T04:46:25.315Z,68.60
2019-01-09T04:51:01.079Z,70.20
2019-01-09T04:55:36.843Z,70.70
2019-01-09T05:00:12.585Z,70.40
2019-01-09T05:04:49.466Z,72.30
2019-01-09T05:09:25.650Z,71.20
2019-01-09T05:14:01.409Z,69.40
2019-01-09T05:18:37.140Z,65.50
2019-01-09T05:23:12.900Z,66.50
2019-01-09T05:27:48.643Z,67.90
2019-01-09T05:32:24.422Z,69.30
2019-01-09T05:37:09.198Z,70.30
2019-01-09T05:41:37.620Z,69.90
2019-01-09T05:46:13.361Z,67.30
2019-01-09T05:50:49.178Z,70.10
2019-01-09T05:55:24.956Z,72.80
2019-01-09T06:00:00.789Z,76.80
2019-01-09T06:04:36.524Z,80.20
2019-01-09T06:09:12.288Z,82.20
2019-01-09T06:13:48.041Z,83.10
2019-01-09T06:18:23.805Z,83.30
2019-01-09T06:22:59.540Z,84.50
2019-01-09T06:27:35.312Z,85.20
2019-01-09T06:32:11.045Z,84.80
2019-01-09T06:36:46.848Z,82.40
2019-01-09T06:41:22.661Z,82.10
2019-01-09T06:45:58.429Z,83.60
2019-01-09T06:50:34.173Z,84.30
2019-01-09T06:55:09.953Z,85.00
2019-01-09T06:59:45.777Z,86.40
2019-01-09T07:04:21.543Z,87.30
2019-01-09T07:08:57.281Z,88.10
2019-01-09T07:13:33.044Z,88.40
2019-01-09T07:18:08.781Z,88.30
2019-01-09T07:22:44.556Z,88.50
2019-01-09T07:27:20.304Z,88.80
2019-01-09T07:31:56.123Z,89.40
2019-01-09T07:36:31.863Z,89.10
2019-01-09T07:41:07.624Z,89.50
2019-01-09T07:45:43.372Z,89.30
2019-01-09T07:50:19.161Z,89.70
2019-01-09T07:54:55.205Z,90.60
2019-01-09T07:59:30.980Z,90.50
2019-01-09T08:04:06.744Z,91.30
2019-01-09T08:08:42.529Z,90.90
2019-01-09T08:13:18.270Z,88.70
2019-01-09T08:17:54.035Z,88.50
2019-01-09T08:22:29.778Z,88.40
2019-01-09T08:27:05.533Z,88.70
2019-01-09T08:31:41.279Z,88.10
2019-01-09T08:36:17.060Z,88.40
2019-01-09T08:40:53.376Z,88.10
2019-01-09T08:45:29.139Z,87.40
2019-01-09T08:50:05.817Z,87.20
2019-01-09T08:54:41.581Z,83.90
2019-01-09T08:59:17.325Z,77.00
2019-01-09T09:03:53.097Z,75.90
2019-01-09T09:08:30.160Z,74.40
2019-01-09T09:13:05.933Z,77.20
2019-01-09T09:17:41.672Z,81.00
2019-01-09T09:22:17.428Z,79.70
2019-01-09T09:26:53.244Z,82.40
2019-01-09T09:31:29.092Z,80.70
2019-01-09T09:36:05.477Z,81.00
2019-01-09T09:40:41.232Z,83.00
2019-01-09T09:45:16.969Z,79.90
2019-01-09T09:49:52.741Z,79.50
2019-01-09T09:54:28.486Z,79.30
2019-01-09T09:59:04.249Z,76.70
2019-01-09T10:03:39.997Z,76.20
2019-01-09T10:08:15.760Z,73.00
2019-01-09T10:12:51.546Z,78.80
2019-01-09T10:17:27.312Z,80.90
2019-01-09T10:22:03.066Z,81.80
2019-01-09T10:26:38.813Z,83.70
2019-01-09T10:31:14.564Z,83.00
2019-01-09T10:35:50.333Z,81.30
2019-01-09T10:40:26.077Z,80.00
2019-01-09T10:45:01.845Z,79.50
2019-01-09T10:49:37.597Z,78.20
2019-01-09T10:54:13.533Z,81.60
2019-01-09T10:58:49.281Z,78.40
2019-01-09T11:03:25.041Z,75.80
2019-01-09T11:08:00.801Z,78.60
2019-01-09T11:12:36.560Z,82.50
2019-01-09T11:17:12.342Z,75.70
2019-01-09T11:21:48.100Z,77.60
2019-01-09T11:26:23.849Z,78.90
2019-01-09T11:30:59.612Z,80.00
2019-01-09T11:35:35.353Z,80.40
2019-01-09T11:40:12.712Z,82.40
2019-01-09T11:44:48.464Z,84.40
2019-01-09T11:49:24.252Z,85.30
2019-01-09T11:54:00.001Z,84.40
2019-01-09T11:58:35.756Z,82.20
2019-01-09T12:03:13.385Z,82.30
2019-01-09T12:07:49.154Z,82.10
2019-01-09T12:12:24.885Z,83.60
2019-01-09T12:17:00.653Z,85.90
2019-01-09T12:21:36.445Z,85.20
2019-01-09T12:26:12.218Z,85.40
2019-01-09T12:30:47.967Z,82.30
2019-01-09T12:35:23.712Z,80.10
2019-01-09T12:39:59.464Z,82.40
2019-01-09T12:44:35.244Z,83.30
2019-01-09T12:49:10.992Z,85.00
2019-01-09T12:53:48.430Z,85.20
2019-01-09T12:58:24.389Z,84.80
2019-01-09T13:03:00.158Z,84.70
2019-01-09T13:07:35.896Z,86.30
2019-01-09T13:12:11.653Z,84.50
2019-01-09T13:16:48.050Z,85.30
2019-01-09T13:21:24.040Z,84.10
2019-01-09T13:26:00.105Z,75.20
2019-01-09T13:30:35.873Z,72.40
2019-01-09T13:35:11.613Z,69.30
2019-01-09T13:39:47.379Z,62.80
2019-01-09T13:44:23.119Z,63.10
2019-01-09T13:48:58.878Z,61.80
2019-01-09T13:53:34.617Z,64.40
2019-01-09T13:58:11.426Z,75.80
2019-01-09T14:02:47.168Z,77.80
2019-01-09T14:07:22.949Z,69.50
2019-01-09T14:11:58.760Z,71.10
2019-01-09T14:16:34.591Z,67.40
2019-01-09T14:21:10.366Z,71.30
2019-01-09T14:25:46.128Z,72.10
2019-01-09T14:30:24.599Z,72.20
2019-01-09T14:35:00.385Z,70.80
2019-01-09T14:39:36.128Z,70.80
2019-01-09T14:44:11.984Z,73.00
2019-01-09T14:48:47.729Z,70.80
2019-01-09T14:53:23.512Z,71.60
2019-01-09T14:57:59.557Z,74.40
2019-01-09T15:02:35.321Z,78.10
2019-01-09T15:07:11.069Z,72.90
2019-01-09T15:11:46.829Z,73.10
2019-01-09T15:16:22.572Z,73.60
2019-01-09T15:20:58.349Z,76.20
2019-01-09T15:25:34.100Z,76.40
2019-01-09T15:30:14.436Z,77.50
2019-01-09T15:34:50.219Z,78.80
2019-01-09T15:39:25.981Z,79.10
2019-01-09T15:44:01.717Z,81.10
2019-01-09T15:48:37.480Z,81.00
2019-01-09T15:53:13.226Z,83.30
2019-01-09T15:57:49.848Z,83.00
2019-01-09T16:02:25.588Z,83.50
2019-01-09T16:07:01.353Z,84.30
2019-01-09T16:11:37.097Z,84.50
2019-01-09T16:16:12.949Z,85.00
2019-01-09T16:20:48.705Z,87.20
2019-01-09T16:25:24.466Z,86.30
2019-01-09T16:30:00.300Z,85.90
2019-01-09T16:34:36.287Z,86.60
2019-01-09T16:39:12.061Z,87.00
2019-01-09T16:43:47.829Z,86.70
2019-01-09T16:48:23.573Z,86.30
2019-01-09T16:52:59.333Z,86.00
2019-01-09T16:57:35.554Z,85.80
2019-01-09T17:02:11.384Z,85.50
2019-01-09T17:06:47.141Z,86.10
2019-01-09T17:11:23.032Z,86.90
2019-01-09T17:15:58.860Z,87.40
2019-01-09T17:20:34.631Z,86.90
2019-01-09T17:25:10.781Z,87.70
2019-01-09T17:29:46.641Z,87.40
2019-01-09T17:34:22.390Z,87.60
2019-01-09T17:38:58.240Z,87.80
2019-01-09T17:43:34.077Z,87.60
2019-01-09T17:48:09.853Z,87.60
2019-01-09T17:52:46.183Z,88.40
2019-01-09T17:57:21.941Z,89.00
2019-01-09T18:02:01.226Z,90.30
2019-01-09T18:06:36.999Z,90.60
2019-01-09T18:11:12.757Z,90.40
2019-01-09T18:15:48.834Z,90.20
2019-01-09T18:20:24.692Z,90.00
2019-01-09T18:25:00.632Z,89.50
2019-01-09T18:29:36.381Z,89.30
2019-01-09T18:34:20.932Z,89.50
2019-01-09T18:39:31.330Z,90.00
2019-01-09T18:45:04.602Z,90.10
2019-01-09T18:49:49.401Z,89.60
2019-01-09T18:54:25.253Z,90.00
2019-01-09T18:59:01.603Z,89.90
2019-01-09T19:03:37.397Z,89.40
2019-01-09T19:08:13.513Z,89.40
2019-01-09T19:12:50.605Z,89.50
2019-01-09T19:17:26.826Z,88.90
2019-01-09T19:22:02.590Z,87.70
2019-01-09T19:26:38.338Z,88.40
2019-01-09T19:31:14.310Z,86.00
2019-01-09T19:35:50.073Z,85.00
2019-01-09T19:40:25.888Z,86.00
2019-01-09T19:45:01.695Z,87.80
2019-01-09T19:49:37.607Z,88.00
2019-01-09T19:54:13.652Z,87.50
2019-01-09T19:58:49.429Z,87.70
2019-01-09T20:03:25.178Z,88.20
2019-01-09T20:08:00.946Z,86.70
2019-01-09T20:12:36.717Z,87.00
2019-01-09T20:17:12.554Z,87.00
2019-01-09T20:21:48.304Z,86.90
2019-01-09T20:26:24.124Z,87.30
2019-01-09T20:30:59.874Z,86.70
2019-01-09T20:35:35.681Z,84.30
2019-01-09T20:40:12.603Z,84.40
2019-01-09T20:44:48.477Z,85.30
2019-01-09T20:49:24.298Z,86.00
2019-01-09T20:54:00.142Z,85.80
2019-01-09T20:58:35.962Z,86.10
2019-01-09T21:03:13.745Z,85.90
2019-01-09T21:07:49.922Z,86.20
2019-01-09T21:12:26.076Z,85.30
2019-01-09T21:17:01.845Z,86.40
2019-01-09T21:21:37.669Z,85.90
2019-01-09T21:26:13.416Z,87.00
2019-01-09T21:30:49.186Z,87.30
2019-01-09T21:35:24.966Z,88.50
2019-01-09T21:40:00.733Z,88.80
2019-01-09T21:44:36.476Z,88.20
2019-01-09T21:49:12.242Z,88.30
2019-01-09T21:53:48.297Z,88.40
2019-01-09T21:58:24.128Z,88.40
2019-01-09T22:02:59.907Z,87.00
2019-01-09T22:07:35.668Z,87.20
2019-01-09T22:12:12.047Z,87.90
2019-01-09T22:16:47.825Z,87.80
2019-01-09T22:21:23.563Z,87.60
2019-01-09T22:25:59.325Z,89.20
2019-01-09T22:30:35.568Z,87.90
2019-01-09T22:35:11.637Z,87.50
2019-01-09T22:39:47.484Z,87.50
2019-01-09T22:44:23.293Z,87.10
2019-01-09T22:48:59.435Z,86.90
2019-01-09T22:53:35.196Z,86.00
2019-01-09T22:58:10.961Z,84.90
2019-01-09T23:02:47.121Z,85.50
2019-01-09T23:07:22.861Z,84.90
2019-01-09T23:11:58.616Z,84.60
2019-01-09T23:16:34.361Z,85.30
2019-01-09T23:21:10.145Z,84.60
2019-01-09T23:25:47.365Z,84.20
2019-01-09T23:30:23.117Z,84.90
2019-01-09T23:34:58.861Z,86.40
2019-01-09T23:39:34.824Z,87.20
2019-01-09T23:44:10.871Z,87.40
2019-01-09T23:48:46.647Z,87.50
2019-01-09T23:53:22.435Z,87.20
2019-01-09T23:57:58.210Z,87.70
